Time;durP1;ratioP1;P1;durP2;ratioP2;P2;SDS_P1;SDS_P2;PMS_P1;PMS_P2;Temp;Humidity;BMP_temperature;BMP_pressure;BME280_temperature;BME280_humidity;BME280_pressure;Samples;Min_cycle;Max_cycle;Signal;HPM_P1;HPM_P2
2024/02/27 00:02:07;;;;;;;0.50;0.40;;;5.80;99.90;;;;;;5058582;28;20203;-83
2024/02/27 00:04:35;;;;;;;11.75;4.13;;;5.80;99.90;;;;;;5058452;28;20234;-83
2024/02/27 00:07:02;;;;;;;1.00;0.88;;;5.80;99.90;;;;;;5058712;28;20242;-83
2024/02/27 00:09:30;;;;;;;4.75;2.97;;;5.80;99.90;;;;;;5058777;28;20573;-83
2024/02/27 00:11:57;;;;;;;4.63;1.60;;;5.80;99.90;;;;;;5059501;28;20199;-83
2024/02/27 00:14:24;;;;;;;4.15;3.85;;;5.80;99.90;;;;;;5058834;28;20196;-83
2024/02/27 00:16:51;;;;;;;4.32;4.13;;;5.80;99.90;;;;;;5058815;28;20203;-83
2024/02/27 00:19:18;;;;;;;0.75;0.75;;;5.90;99.90;;;;;;5058641;28;20202;-82
2024/02/27 00:21:47;;;;;;;3.60;2.45;;;5.80;99.90;;;;;;5059621;28;20195;-82
2024/02/27 00:24:14;;;;;;;5.25;2.95;;;5.80;99.90;;;;;;5059333;28;20197;-83
2024/02/27 00:26:40;;;;;;;9.10;5.50;;;5.80;99.90;;;;;;5062878;28;20680;-82
2024/02/27 00:29:07;;;;;;;0.50;0.45;;;5.80;99.90;;;;;;5063124;28;20195;-82
2024/02/27 00:31:34;;;;;;;0.52;0.52;;;5.80;99.90;;;;;;5062819;28;20194;-83
2024/02/27 00:34:03;;;;;;;12.60;4.65;;;5.80;99.90;;;;;;5062232;28;20203;-83
2024/02/27 00:36:29;;;;;;;5.07;3.45;;;5.80;99.90;;;;;;5062666;28;20198;-82
2024/02/27 00:38:59;;;;;;;2.78;2.05;;;5.80;99.90;;;;;;5062181;28;20219;-82
2024/02/27 00:41:25;;;;;;;2.28;2.17;;;5.70;99.90;;;;;;5061999;28;20202;-82
2024/02/27 00:43:52;;;;;;;2.88;2.35;;;5.80;99.90;;;;;;5061788;28;20577;-83
2024/02/27 00:46:20;;;;;;;0.50;0.50;;;5.80;99.90;;;;;;5061841;28;20226;-83
2024/02/27 00:48:47;;;;;;;0.73;0.73;;;5.80;99.90;;;;;;5060667;28;20222;-83
2024/02/27 00:51:14;;;;;;;2.10;2.00;;;5.80;99.90;;;;;;5062825;28;20202;-82
2024/02/27 00:53:41;;;;;;;1.10;1.10;;;5.80;99.90;;;;;;5062174;28;20195;-83
2024/02/27 00:56:10;;;;;;;2.90;2.70;;;5.80;99.90;;;;;;5061879;28;20279;-83
2024/02/27 00:58:38;;;;;;;1.30;1.05;;;5.90;99.90;;;;;;5062082;28;20227;-83
2024/02/27 01:01:04;;;;;;;1.60;1.05;;;5.80;99.90;;;;;;5061790;28;20262;-82
2024/02/27 01:03:32;;;;;;;1.83;1.35;;;5.80;99.90;;;;;;5061275;28;20199;-83
2024/02/27 01:05:58;;;;;;;9.15;4.22;;;5.80;99.90;;;;;;5060888;28;20563;-82
2024/02/27 01:08:26;;;;;;;0.60;0.60;;;5.90;99.90;;;;;;5060729;28;20234;-82
2024/02/27 01:10:53;;;;;;;3.25;3.10;;;5.80;99.90;;;;;;5061547;28;20624;-82
2024/02/27 01:13:21;;;;;;;2.35;2.25;;;5.80;99.90;;;;;;5061250;28;20198;-81
2024/02/27 01:15:48;;;;;;;4.47;4.00;;;5.80;99.90;;;;;;5058421;28;20191;-80
2024/02/27 01:18:14;;;;;;;2.08;1.13;;;5.80;99.90;;;;;;5058532;28;20583;-81
2024/02/27 01:20:41;;;;;;;0.70;0.68;;;5.70;99.90;;;;;;5059040;28;20210;-82
2024/02/27 01:23:08;;;;;;;1.67;1.58;;;5.80;99.90;;;;;;5058782;28;20207;-81
2024/02/27 01:25:35;;;;;;;2.15;2.05;;;5.80;99.90;;;;;;5057925;28;20226;-82
2024/02/27 01:28:02;;;;;;;5.93;3.78;;;5.80;99.90;;;;;;5057061;28;20272;-81
2024/02/27 01:30:31;;;;;;;4.88;4.50;;;5.80;99.90;;;;;;5057748;28;20199;-81
2024/02/27 01:32:58;;;;;;;1.42;1.02;;;5.70;99.90;;;;;;5057982;28;20196;-81
2024/02/27 01:35:26;;;;;;;1.40;1.30;;;5.70;99.90;;;;;;5056674;28;20204;-82
2024/02/27 01:37:52;;;;;;;0.50;0.50;;;5.70;99.90;;;;;;5057122;28;20215;-82
2024/02/27 01:40:19;;;;;;;1.13;1.05;;;5.70;99.90;;;;;;5057189;28;20203;-81
2024/02/27 01:42:48;;;;;;;2.75;2.53;;;5.70;99.90;;;;;;5057324;28;20285;-81
2024/02/27 01:45:21;;;;;;;1.95;1.85;;;5.70;99.90;;;;;;5056586;28;20265;-80
2024/02/27 01:47:50;;;;;;;1.33;1.23;;;5.70;99.90;;;;;;5056699;28;20215;-81
2024/02/27 01:50:18;;;;;;;2.75;2.65;;;5.70;99.90;;;;;;5056593;28;20194;-81
2024/02/27 01:52:46;;;;;;;3.30;1.33;;;5.70;99.90;;;;;;5056368;28;20697;-80
2024/02/27 01:55:15;;;;;;;3.65;1.85;;;5.60;99.90;;;;;;5056631;28;20654;-81
2024/02/27 01:57:42;;;;;;;0.50;0.50;;;5.60;99.90;;;;;;5056398;28;20222;-80
2024/02/27 02:00:10;;;;;;;2.35;2.25;;;5.60;99.90;;;;;;5056055;28;20633;-81
2024/02/27 02:02:37;;;;;;;1.70;1.05;;;5.70;99.90;;;;;;5055683;28;20211;-81
2024/02/27 02:05:07;;;;;;;10.27;2.85;;;5.70;99.90;;;;;;5055724;28;20223;-80
2024/02/27 02:07:35;;;;;;;1.55;1.23;;;5.70;99.90;;;;;;5055120;28;20214;-81
2024/02/27 02:10:03;;;;;;;1.35;1.35;;;5.60;99.90;;;;;;5055827;28;20301;-81
2024/02/27 02:12:30;;;;;;;0.52;0.50;;;5.60;99.90;;;;;;5055067;28;20203;-80
2024/02/27 02:14:57;;;;;;;0.50;0.40;;;5.60;99.90;;;;;;5055193;28;20191;-80
2024/02/27 02:17:24;;;;;;;0.50;0.40;;;5.50;99.90;;;;;;5054896;28;20238;-81
2024/02/27 02:19:51;;;;;;;1.13;1.13;;;5.50;99.90;;;;;;5054898;28;20207;-81
2024/02/27 02:22:19;;;;;;;2.58;2.47;;;5.50;99.90;;;;;;5054380;28;20205;-80
2024/02/27 02:24:45;;;;;;;6.68;3.97;;;5.50;99.90;;;;;;5054335;28;20195;-80
2024/02/27 02:27:15;;;;;;;3.25;3.15;;;5.50;99.90;;;;;;5056871;28;20223;-81
2024/02/27 02:29:44;;;;;;;0.50;0.40;;;5.50;99.90;;;;;;5063073;28;20199;-82
2024/02/27 02:32:12;;;;;;;1.02;0.95;;;5.50;99.90;;;;;;5061305;28;20225;-82
2024/02/27 02:34:40;;;;;;;0.65;0.63;;;5.50;99.90;;;;;;5056493;28;20219;-82
2024/02/27 02:37:09;;;;;;;0.50;0.40;;;5.50;99.90;;;;;;5054143;28;20215;-82
2024/02/27 02:39:37;;;;;;;0.85;0.85;;;5.50;99.90;;;;;;5059889;28;20574;-82
2024/02/27 02:42:05;;;;;;;0.70;0.70;;;5.50;99.90;;;;;;5058218;28;20202;-82
2024/02/27 02:44:33;;;;;;;3.63;3.38;;;5.50;99.90;;;;;;5053516;28;20249;-81
2024/02/27 02:47:00;;;;;;;1.92;1.83;;;5.50;99.90;;;;;;5056511;28;20227;-82
2024/02/27 02:49:27;;;;;;;1.60;1.45;;;5.50;99.90;;;;;;5059045;28;20195;-83
2024/02/27 02:51:53;;;;;;;2.55;2.35;;;5.50;99.90;;;;;;5056371;28;20203;-81
2024/02/27 02:54:20;;;;;;;0.63;0.63;;;5.40;99.90;;;;;;5055921;28;20195;-81
2024/02/27 02:56:50;;;;;;;2.25;2.15;;;5.50;99.90;;;;;;5055483;28;20191;-82
2024/02/27 02:59:16;;;;;;;0.98;0.98;;;5.50;99.90;;;;;;5053515;28;20195;-81
2024/02/27 03:01:43;;;;;;;0.93;0.90;;;5.50;99.90;;;;;;5054140;28;20206;-81
2024/02/27 03:04:13;;;;;;;0.57;0.57;;;5.50;99.90;;;;;;5053551;28;20206;-81
2024/02/27 03:06:41;;;;;;;0.50;0.40;;;5.50;99.90;;;;;;5051917;28;20589;-82
2024/02/27 03:09:08;;;;;;;1.80;1.55;;;5.50;99.90;;;;;;5053063;28;20195;-81
2024/02/27 03:11:35;;;;;;;3.40;3.17;;;5.50;99.90;;;;;;5053204;28;20629;-83
2024/02/27 03:14:06;;;;;;;0.50;0.40;;;5.40;99.90;;;;;;5053389;28;20300;-81
2024/02/27 03:16:33;;;;;;;0.80;0.80;;;5.40;99.90;;;;;;5053225;28;20191;-83
2024/02/27 03:18:58;;;;;;;2.35;1.05;;;5.40;99.90;;;;;;5053334;28;20717;-82
2024/02/27 03:21:25;;;;;;;1.50;1.40;;;5.50;99.90;;;;;;5059430;28;20197;-83
2024/02/27 03:23:53;;;;;;;0.95;0.95;;;5.40;99.90;;;;;;5060443;28;20206;-83
2024/02/27 03:26:21;;;;;;;1.77;1.05;;;5.40;99.90;;;;;;5059662;28;20219;-83
2024/02/27 03:28:48;;;;;;;2.83;1.30;;;5.40;99.90;;;;;;5060194;28;20341;-82
2024/02/27 03:31:19;;;;;;;3.00;2.80;;;5.40;99.90;;;;;;5059924;28;20210;-83
2024/02/27 03:33:48;;;;;;;7.43;2.03;;;5.40;99.90;;;;;;5059568;28;20194;-83
2024/02/27 03:36:14;;;;;;;0.50;0.40;;;5.40;99.90;;;;;;5058637;28;20198;-82
2024/02/27 03:38:42;;;;;;;5.75;1.25;;;5.40;99.90;;;;;;5059479;28;20219;-82
2024/02/27 03:41:13;;;;;;;0.52;0.52;;;5.40;99.90;;;;;;5059919;28;20548;-83
2024/02/27 03:43:41;;;;;;;0.98;0.93;;;5.40;99.90;;;;;;5059821;28;20241;-83
2024/02/27 03:46:08;;;;;;;0.50;0.40;;;5.30;99.90;;;;;;5059583;28;20211;-83
2024/02/27 03:48:36;;;;;;;2.17;1.80;;;5.30;99.90;;;;;;5059213;28;20230;-82
2024/02/27 03:51:03;;;;;;;5.60;2.25;;;5.30;99.90;;;;;;5059111;28;20191;-83
2024/02/27 03:53:31;;;;;;;2.67;2.55;;;5.30;99.90;;;;;;5059668;28;20685;-82
2024/02/27 03:55:58;;;;;;;1.73;1.63;;;5.30;99.90;;;;;;5061852;28;20191;-80
2024/02/27 03:58:25;;;;;;;1.80;1.70;;;5.30;99.90;;;;;;5073979;28;20206;-82
2024/02/27 04:00:52;;;;;;;0.73;0.73;;;5.20;99.90;;;;;;5074257;28;20195;-81
2024/02/27 04:03:18;;;;;;;8.65;5.35;;;5.20;99.90;;;;;;5073779;28;20198;-81
2024/02/27 04:05:47;;;;;;;0.50;0.50;;;5.30;99.90;;;;;;5073527;28;20226;-81
2024/02/27 04:08:14;;;;;;;10.52;4.72;;;5.30;99.90;;;;;;5073668;28;20214;-81
2024/02/27 04:10:41;;;;;;;1.95;1.35;;;5.20;99.90;;;;;;5066549;28;20202;-83
2024/02/27 04:13:08;;;;;;;3.05;1.77;;;5.20;99.90;;;;;;5059212;28;20190;-83
2024/02/27 04:15:35;;;;;;;0.75;0.75;;;5.20;99.90;;;;;;5058838;28;20199;-82
2024/02/27 04:18:03;;;;;;;0.60;0.60;;;5.20;99.90;;;;;;5058984;28;20219;-83
2024/02/27 04:20:30;;;;;;;3.17;2.97;;;5.20;99.90;;;;;;5059745;28;20612;-82
2024/02/27 04:23:04;;;;;;;1.75;1.17;;;5.20;99.90;;;;;;5059274;28;20253;-82
2024/02/27 04:25:32;;;;;;;2.05;1.95;;;5.20;99.90;;;;;;5060529;28;20254;-82
2024/02/27 04:27:59;;;;;;;2.67;2.55;;;5.20;99.90;;;;;;5059954;28;20225;-82
2024/02/27 04:30:26;;;;;;;0.60;0.60;;;5.20;99.90;;;;;;5060109;28;20202;-82
2024/02/27 04:32:53;;;;;;;0.50;0.50;;;5.20;99.90;;;;;;5058779;28;20191;-81
2024/02/27 04:35:20;;;;;;;0.82;0.82;;;5.20;99.90;;;;;;5059357;28;20693;-81
2024/02/27 04:37:47;;;;;;;0.93;0.93;;;5.20;99.90;;;;;;5058799;28;20219;-83
2024/02/27 04:40:15;;;;;;;4.82;1.30;;;5.30;99.90;;;;;;5058878;28;20206;-82
2024/02/27 04:42:42;;;;;;;0.60;0.60;;;5.20;99.90;;;;;;5058587;28;20226;-81
2024/02/27 04:45:09;;;;;;;4.07;3.75;;;5.20;99.90;;;;;;5057948;28;20203;-82
2024/02/27 04:47:36;;;;;;;1.90;1.80;;;5.20;99.90;;;;;;5058160;28;20234;-82
2024/02/27 04:50:03;;;;;;;3.30;3.10;;;5.20;99.90;;;;;;5058801;28;20546;-82
2024/02/27 04:52:30;;;;;;;2.25;1.85;;;5.10;99.90;;;;;;5058838;28;20202;-82
2024/02/27 04:54:56;;;;;;;0.93;0.93;;;5.10;99.90;;;;;;5058473;28;20697;-82
2024/02/27 04:57:24;;;;;;;0.85;0.85;;;5.10;99.90;;;;;;5057503;28;20588;-82
2024/02/27 04:59:51;;;;;;;1.95;1.85;;;5.10;99.90;;;;;;5058775;28;20263;-82
2024/02/27 05:02:20;;;;;;;0.50;0.40;;;5.10;99.90;;;;;;5058464;28;20203;-83
2024/02/27 05:04:48;;;;;;;1.08;1.08;;;5.10;99.90;;;;;;5057779;28;20573;-82
2024/02/27 05:07:15;;;;;;;0.95;0.95;;;5.10;99.90;;;;;;5058033;28;20219;-82
2024/02/27 05:09:43;;;;;;;2.25;2.15;;;5.00;99.90;;;;;;5058990;28;20195;-81
2024/02/27 05:12:09;;;;;;;0.95;0.95;;;5.00;99.90;;;;;;5061869;28;20191;-82
2024/02/27 05:14:37;;;;;;;0.73;0.73;;;5.00;99.90;;;;;;5061230;28;20232;-82
2024/02/27 05:17:04;;;;;;;1.05;1.05;;;5.00;99.90;;;;;;5060579;28;20717;-83
2024/02/27 05:19:31;;;;;;;3.25;3.05;;;5.00;99.90;;;;;;5060956;28;20195;-82
2024/02/27 05:21:58;;;;;;;3.22;2.58;;;5.00;99.90;;;;;;5059704;28;20230;-82
2024/02/27 05:24:25;;;;;;;0.50;0.50;;;5.00;99.90;;;;;;5059753;28;20199;-83
2024/02/27 05:26:52;;;;;;;0.80;0.80;;;5.00;99.90;;;;;;5058281;28;20589;-81
2024/02/27 05:29:19;;;;;;;0.57;0.47;;;5.00;99.90;;;;;;5059467;28;20194;-80
2024/02/27 05:31:47;;;;;;;2.88;1.95;;;5.00;99.90;;;;;;5061111;28;20199;-81
2024/02/27 05:34:14;;;;;;;6.38;2.45;;;4.90;99.90;;;;;;5059220;28;20202;-81
2024/02/27 05:36:40;;;;;;;0.90;0.90;;;4.90;99.90;;;;;;5059705;28;20195;-81
2024/02/27 05:39:08;;;;;;;1.15;1.15;;;4.90;99.90;;;;;;5060268;28;20653;-80
2024/02/27 05:41:35;;;;;;;2.45;2.35;;;4.90;99.90;;;;;;5059026;28;20294;-81
2024/02/27 05:44:03;;;;;;;0.60;0.60;;;4.90;99.90;;;;;;5059297;28;20191;-81
2024/02/27 05:46:30;;;;;;;0.50;0.50;;;4.80;99.90;;;;;;5058939;28;20223;-81
2024/02/27 05:48:59;;;;;;;0.50;0.40;;;4.90;99.90;;;;;;5057929;28;20748;-81
2024/02/27 05:51:27;;;;;;;5.85;5.47;;;4.90;99.90;;;;;;5058462;28;20214;-82
2024/02/27 05:53:56;;;;;;;0.50;0.50;;;4.90;99.90;;;;;;5057477;28;20214;-81
2024/02/27 05:56:23;;;;;;;2.05;1.95;;;4.80;99.90;;;;;;5058991;28;20574;-80
2024/02/27 05:58:50;;;;;;;4.22;1.50;;;4.80;99.90;;;;;;5058321;28;20219;-83
2024/02/27 06:01:19;;;;;;;7.40;4.00;;;4.90;99.90;;;;;;5058137;28;20202;-82
2024/02/27 06:03:46;;;;;;;1.60;1.50;;;4.90;99.90;;;;;;5057640;28;20199;-82
2024/02/27 06:06:16;;;;;;;4.00;1.67;;;4.90;99.90;;;;;;5056479;28;20226;-81
2024/02/27 06:08:43;;;;;;;2.10;2.00;;;4.80;99.90;;;;;;5057459;28;20219;-81
2024/02/27 06:11:11;;;;;;;0.50;0.40;;;4.80;99.90;;;;;;5057518;28;20581;-82
2024/02/27 06:13:38;;;;;;;2.63;2.47;;;4.80;99.90;;;;;;5059073;28;20195;-82
2024/02/27 06:16:06;;;;;;;0.95;0.95;;;4.70;99.90;;;;;;5059031;28;20195;-83
2024/02/27 06:18:37;;;;;;;1.90;1.80;;;4.70;99.90;;;;;;5056881;28;20211;-81
2024/02/27 06:23:51;;;;;;;5.53;1.55;;;4.70;99.90;;;;;;5056148;28;20221;-82
2024/02/27 06:26:18;;;;;;;2.45;2.35;;;4.60;99.90;;;;;;5055856;28;20701;-81
2024/02/27 06:28:47;;;;;;;0.70;0.70;;;4.70;99.90;;;;;;5054929;28;20272;-80
2024/02/27 06:31:14;;;;;;;1.83;1.73;;;4.80;99.90;;;;;;5055639;28;20705;-81
2024/02/27 06:33:42;;;;;;;19.38;9.35;;;4.70;99.90;;;;;;5055883;28;20191;-82
2024/02/27 06:36:09;;;;;;;0.50;0.40;;;4.70;99.90;;;;;;5056475;28;20198;-83
2024/02/27 06:38:36;;;;;;;3.35;3.05;;;4.70;99.90;;;;;;5057116;28;20218;-81
2024/02/27 06:41:04;;;;;;;1.27;1.20;;;4.70;99.90;;;;;;5056353;28;20203;-81
2024/02/27 06:43:31;;;;;;;1.40;1.05;;;4.70;99.90;;;;;;5059502;28;20195;-81
2024/02/27 06:45:57;;;;;;;0.63;0.63;;;4.70;99.90;;;;;;5057553;28;20681;-80
2024/02/27 06:48:28;;;;;;;10.73;3.72;;;4.70;99.90;;;;;;5057192;28;20219;-81
2024/02/27 06:50:55;;;;;;;0.55;0.52;;;4.80;99.90;;;;;;5054108;28;20210;-81
2024/02/27 06:53:23;;;;;;;1.42;1.33;;;4.70;99.90;;;;;;5055787;28;20199;-83
2024/02/27 06:55:50;;;;;;;2.47;1.00;;;4.80;99.90;;;;;;5056742;28;20199;-81
2024/02/27 06:58:18;;;;;;;0.50;0.40;;;4.80;99.90;;;;;;5053647;28;20294;-81
2024/02/27 07:00:46;;;;;;;1.00;1.00;;;4.80;99.90;;;;;;5055049;28;20248;-80
2024/02/27 07:03:13;;;;;;;2.42;2.10;;;4.80;99.90;;;;;;5054238;28;20202;-81
2024/02/27 07:05:40;;;;;;;2.25;1.55;;;4.90;99.90;;;;;;5054524;28;20195;-82
2024/02/27 07:08:09;;;;;;;18.13;5.13;;;4.90;99.90;;;;;;5052830;28;20226;-81
2024/02/27 07:10:36;;;;;;;4.32;4.13;;;4.90;99.90;;;;;;5053313;28;20195;-82
2024/02/27 07:13:05;;;;;;;2.03;1.17;;;5.00;99.90;;;;;;5053497;28;20196;-81
2024/02/27 07:15:33;;;;;;;2.78;2.55;;;4.90;99.90;;;;;;5054773;28;20198;-81
2024/02/27 07:18:00;;;;;;;2.03;1.92;;;4.90;99.90;;;;;;5054827;28;20212;-82
2024/02/27 07:20:27;;;;;;;4.38;1.40;;;4.90;99.90;;;;;;5054916;28;20199;-81
2024/02/27 07:22:53;;;;;;;1.08;1.08;;;5.00;99.90;;;;;;5054613;28;20221;-82
2024/02/27 07:25:20;;;;;;;0.70;0.70;;;5.00;99.90;;;;;;5054236;28;20195;-82
2024/02/27 07:27:48;;;;;;;0.60;0.60;;;5.10;99.90;;;;;;5054529;28;20227;-81
2024/02/27 07:30:16;;;;;;;12.95;6.45;;;5.10;99.90;;;;;;5053293;28;20609;-81
2024/02/27 07:32:44;;;;;;;1.70;1.70;;;5.10;99.90;;;;;;5052257;28;20278;-82
2024/02/27 07:35:11;;;;;;;1.35;1.35;;;5.10;99.90;;;;;;5050212;28;20543;-82
2024/02/27 07:37:38;;;;;;;2.15;2.05;;;5.20;99.90;;;;;;5050798;28;20215;-81
2024/02/27 07:40:07;;;;;;;2.88;1.50;;;5.20;99.90;;;;;;5054113;28;20569;-81
2024/02/27 07:42:34;;;;;;;1.58;1.48;;;5.20;99.90;;;;;;5052737;28;20810;-81
2024/02/27 07:45:00;;;;;;;2.38;2.28;;;5.30;99.90;;;;;;5054693;28;20214;-80
2024/02/27 07:47:28;;;;;;;5.18;3.40;;;5.30;99.90;;;;;;5052321;28;20225;-81
2024/02/27 07:49:57;;;;;;;6.47;1.50;;;5.20;99.90;;;;;;5053014;28;20230;-80
2024/02/27 07:52:24;;;;;;;0.95;0.95;;;5.30;99.90;;;;;;5046946;28;20219;-79
2024/02/27 07:54:51;;;;;;;1.70;1.60;;;5.40;99.90;;;;;;5052379;28;20199;-81
2024/02/27 07:57:18;;;;;;;1.58;1.48;;;5.50;99.90;;;;;;5054411;28;20208;-80
2024/02/27 07:59:44;;;;;;;1.85;1.75;;;5.60;99.90;;;;;;5054377;28;20195;-82
2024/02/27 08:02:11;;;;;;;0.50;0.50;;;5.60;99.90;;;;;;5055735;28;20198;-81
2024/02/27 08:04:38;;;;;;;1.98;1.88;;;5.50;99.90;;;;;;5052576;28;20201;-83
2024/02/27 08:07:06;;;;;;;10.18;3.55;;;5.50;99.90;;;;;;5049739;28;20242;-82
2024/02/27 08:09:34;;;;;;;0.50;0.40;;;5.50;99.90;;;;;;5053192;28;20565;-83
2024/02/27 08:12:00;;;;;;;5.18;2.47;;;5.40;99.90;;;;;;5059099;28;20598;-83
2024/02/27 08:14:32;;;;;;;2.65;2.45;;;5.50;99.90;;;;;;5063382;28;20191;-82
2024/02/27 08:17:02;;;;;;;9.73;6.35;;;5.50;99.90;;;;;;5062829;28;20203;-82
2024/02/27 08:19:29;;;;;;;1.23;1.20;;;5.50;99.90;;;;;;5064291;28;20258;-85
2024/02/27 08:22:03;;;;;;;4.30;1.30;;;5.50;99.90;;;;;;5064665;28;20677;-83
2024/02/27 08:24:31;;;;;;;0.50;0.40;;;5.60;99.90;;;;;;5063988;28;20193;-81
2024/02/27 08:26:58;;;;;;;1.65;1.58;;;5.60;99.90;;;;;;5064094;28;20230;-83
2024/02/27 08:29:25;;;;;;;1.58;1.48;;;5.60;99.90;;;;;;5067009;28;20191;-83
2024/02/27 08:31:52;;;;;;;0.60;0.60;;;5.60;99.90;;;;;;5065409;28;20194;-81
2024/02/27 08:34:19;;;;;;;8.55;5.15;;;5.70;99.90;;;;;;5066483;28;20207;-82
2024/02/27 08:36:46;;;;;;;0.50;0.40;;;5.60;99.90;;;;;;5066456;28;20195;-82
2024/02/27 08:39:13;;;;;;;2.17;1.45;;;5.60;99.90;;;;;;5066175;28;20195;-82
2024/02/27 08:41:41;;;;;;;1.95;0.73;;;5.70;99.90;;;;;;5067100;28;20202;-85
2024/02/27 08:44:10;;;;;;;6.93;6.25;;;5.60;99.90;;;;;;5066013;28;20200;-84
2024/02/27 08:46:37;;;;;;;1.35;1.08;;;5.50;99.90;;;;;;5068899;28;20198;-83
2024/02/27 08:49:04;;;;;;;6.57;2.63;;;5.50;99.90;;;;;;5069932;28;20195;-84
2024/02/27 08:51:33;;;;;;;6.30;5.78;;;5.40;99.90;;;;;;5069348;28;20195;-83
2024/02/27 08:54:00;;;;;;;0.70;0.70;;;5.50;99.90;;;;;;5068929;28;20199;-81
2024/02/27 08:56:27;;;;;;;12.30;5.95;;;5.50;99.90;;;;;;5069750;28;20202;-83
2024/02/27 08:58:55;;;;;;;4.57;4.30;;;5.40;99.90;;;;;;5068830;28;20686;-83
2024/02/27 09:01:23;;;;;;;7.25;2.45;;;5.30;99.90;;;;;;5069259;28;20608;-81
2024/02/27 09:03:51;;;;;;;2.55;2.35;;;5.40;99.90;;;;;;5069824;28;20257;-83
2024/02/27 09:06:17;;;;;;;10.07;5.88;;;5.40;99.90;;;;;;5070539;28;20188;-84
2024/02/27 09:08:44;;;;;;;5.22;4.35;;;5.40;99.90;;;;;;5068648;28;20361;-81
2024/02/27 09:11:11;;;;;;;6.97;2.78;;;5.40;99.90;;;;;;5069068;28;20195;-86
2024/02/27 09:13:40;;;;;;;3.40;2.65;;;5.50;99.90;;;;;;5070149;28;20255;-83
2024/02/27 09:16:08;;;;;;;0.95;0.95;;;5.70;99.90;;;;;;5070386;28;20199;-82
2024/02/27 09:18:38;;;;;;;7.43;1.65;;;5.80;99.90;;;;;;5064745;28;20214;-84
2024/02/27 09:21:06;;;;;;;3.63;2.65;;;5.90;99.90;;;;;;5063608;28;20247;-85
2024/02/27 09:23:32;;;;;;;13.55;4.15;;;5.80;99.90;;;;;;5068822;28;20259;-84
2024/02/27 09:26:02;;;;;;;0.70;0.70;;;5.80;99.90;;;;;;5069761;28;20195;-85
2024/02/27 09:28:29;;;;;;;2.10;1.77;;;5.90;99.90;;;;;;5069534;28;20226;-82
2024/02/27 09:30:56;;;;;;;1.20;1.20;;;6.00;99.90;;;;;;5068839;28;20195;-83
2024/02/27 09:33:24;;;;;;;7.15;6.50;;;6.10;99.90;;;;;;5068136;28;20195;-84
2024/02/27 09:35:51;;;;;;;0.50;0.40;;;6.20;99.90;;;;;;5069407;28;20199;-83
2024/02/27 09:38:18;;;;;;;3.55;3.30;;;6.30;99.90;;;;;;5070756;28;20693;-82
2024/02/27 09:40:46;;;;;;;2.30;2.10;;;6.40;99.90;;;;;;5071495;28;20202;-84
2024/02/27 09:43:21;;;;;;;1.73;0.93;;;6.30;99.90;;;;;;5070754;28;20199;-83
2024/02/27 09:45:51;;;;;;;2.33;2.20;;;6.30;99.90;;;;;;5071199;28;20190;-84
2024/02/27 09:48:18;;;;;;;1.40;1.08;;;6.20;99.90;;;;;;5070976;28;20242;-84
2024/02/27 09:50:53;;;;;;;0.50;0.40;;;6.20;99.90;;;;;;5070642;28;20183;-81
2024/02/27 09:53:21;;;;;;;0.50;0.40;;;6.20;99.90;;;;;;5070731;28;20575;-82
2024/02/27 09:55:48;;;;;;;4.97;4.43;;;6.10;99.90;;;;;;5068553;28;20226;-84
2024/02/27 09:58:18;;;;;;;2.65;2.45;;;6.10;99.90;;;;;;5070937;28;20274;-83
2024/02/27 10:00:45;;;;;;;1.88;1.45;;;6.10;99.90;;;;;;5070633;28;20191;-83
2024/02/27 10:03:14;;;;;;;1.58;1.52;;;6.00;99.90;;;;;;5070512;28;20207;-85
2024/02/27 10:05:42;;;;;;;2.47;2.38;;;5.90;99.90;;;;;;5071922;28;20195;-84
2024/02/27 10:08:19;;;;;;;5.43;1.20;;;6.00;99.90;;;;;;5072031;28;20223;-83
2024/02/27 10:10:46;;;;;;;3.33;2.80;;;6.10;99.90;;;;;;5074403;28;20198;-86
2024/02/27 10:13:14;;;;;;;2.20;2.03;;;6.10;99.90;;;;;;5073858;28;20255;-81
2024/02/27 10:15:43;;;;;;;3.17;2.80;;;6.10;99.90;;;;;;5069589;28;20206;-83
2024/02/27 10:18:11;;;;;;;2.92;2.67;;;6.30;99.90;;;;;;5069714;28;20222;-85
2024/02/27 10:20:37;;;;;;;4.50;3.17;;;6.40;99.90;;;;;;5068886;28;20585;-82
2024/02/27 10:23:04;;;;;;;12.02;4.25;;;6.50;99.90;;;;;;5069766;28;20222;-83
2024/02/27 10:25:33;;;;;;;1.75;1.65;;;6.30;99.90;;;;;;5069652;28;20206;-84
2024/02/27 10:28:01;;;;;;;2.17;2.00;;;6.20;99.90;;;;;;5068554;28;20222;-85
2024/02/27 10:30:28;;;;;;;1.63;1.52;;;6.40;99.90;;;;;;5069412;28;20195;-86
2024/02/27 10:32:55;;;;;;;1.20;1.20;;;6.40;99.90;;;;;;5068774;28;20638;-83
2024/02/27 10:35:25;;;;;;;1.52;1.42;;;6.40;99.90;;;;;;5068615;28;20190;-84
2024/02/27 10:37:52;;;;;;;0.60;0.60;;;6.50;99.90;;;;;;5068963;28;20222;-82
2024/02/27 10:40:20;;;;;;;1.58;0.90;;;6.50;99.90;;;;;;5070243;28;20228;-83
2024/02/27 10:42:51;;;;;;;2.80;2.00;;;6.50;99.90;;;;;;5069474;28;20210;-82
2024/02/27 10:45:18;;;;;;;1.33;1.33;;;6.40;99.90;;;;;;5070123;28;20189;-82
2024/02/27 10:47:48;;;;;;;1.77;1.73;;;6.40;99.90;;;;;;5070729;28;20273;-82
2024/02/27 10:50:15;;;;;;;1.60;1.50;;;6.40;99.90;;;;;;5070578;28;20215;-83
2024/02/27 10:52:44;;;;;;;2.08;1.50;;;6.30;99.90;;;;;;5068991;28;20211;-86
2024/02/27 10:55:14;;;;;;;4.13;3.38;;;6.30;99.90;;;;;;5069597;28;20218;-84
2024/02/27 10:57:41;;;;;;;3.42;3.20;;;6.40;99.90;;;;;;5070000;28;20225;-81
2024/02/27 11:00:13;;;;;;;2.15;1.48;;;6.60;99.90;;;;;;5067213;28;20226;-81
2024/02/27 11:02:44;;;;;;;0.50;0.40;;;6.90;99.90;;;;;;5062581;28;20234;-83
2024/02/27 11:05:12;;;;;;;0.50;0.50;;;6.90;99.90;;;;;;5060421;28;20198;-82
2024/02/27 11:07:39;;;;;;;0.70;0.70;;;7.00;99.90;;;;;;5059574;28;20211;-81
2024/02/27 11:10:08;;;;;;;0.50;0.40;;;7.20;99.90;;;;;;5058661;28;20202;-82
2024/02/27 11:12:37;;;;;;;4.00;3.50;;;7.40;99.90;;;;;;5056388;28;20434;-81
2024/02/27 11:15:09;;;;;;;0.80;0.80;;;7.80;99.90;;;;;;5058192;28;20461;-83
2024/02/27 11:17:43;;;;;;;2.35;2.25;;;7.90;99.90;;;;;;5062783;28;20462;-82
2024/02/27 11:20:11;;;;;;;1.58;1.48;;;8.20;99.90;;;;;;5076470;28;20176;-86
2024/02/27 11:22:40;;;;;;;1.43;1.33;;;8.50;99.90;;;;;;5076596;28;20183;-82
2024/02/27 11:25:09;;;;;;;2.83;1.60;;;8.80;99.90;;;;;;5074981;28;20437;-84
2024/02/27 11:27:38;;;;;;;0.60;0.50;;;8.80;99.90;;;;;;5073005;28;20452;-82
2024/02/27 11:30:06;;;;;;;7.20;3.30;;;8.90;99.90;;;;;;5073574;28;20460;-80
2024/02/27 11:32:36;;;;;;;0.50;0.40;;;9.00;99.90;;;;;;5067419;28;20441;-81
2024/02/27 11:35:06;;;;;;;0.83;0.83;;;9.20;99.90;;;;;;5064667;28;20445;-80
2024/02/27 11:37:34;;;;;;;3.43;3.03;;;9.30;99.90;;;;;;5064966;28;20461;-80
2024/02/27 11:40:04;;;;;;;1.73;0.60;;;9.60;99.90;;;;;;5066009;28;20449;-82
2024/02/27 11:42:37;;;;;;;2.20;1.23;;;9.70;99.90;;;;;;5064622;28;20471;-81
2024/02/27 11:45:07;;;;;;;4.43;0.73;;;9.20;99.90;;;;;;5063211;28;20440;-82
2024/02/27 11:47:37;;;;;;;0.50;0.40;;;9.10;99.90;;;;;;5061734;28;20503;-83
2024/02/27 11:50:10;;;;;;;0.50;0.40;;;9.30;99.90;;;;;;5064420;28;20434;-81
2024/02/27 11:52:38;;;;;;;5.67;0.80;;;9.40;99.90;;;;;;5064973;28;20430;-82
2024/02/27 11:55:07;;;;;;;4.80;4.43;;;9.60;99.90;;;;;;5064486;28;20444;-80
2024/02/27 11:57:36;;;;;;;4.27;3.87;;;9.80;99.90;;;;;;5063483;28;20964;-81
2024/02/27 12:00:14;;;;;;;1.53;0.97;;;9.80;99.90;;;;;;5060309;28;20440;-81
2024/02/27 12:02:46;;;;;;;1.27;1.17;;;9.90;99.90;;;;;;5058748;28;20448;-81
2024/02/27 12:05:16;;;;;;;0.50;0.40;;;9.90;99.90;;;;;;5061789;28;20804;-81
2024/02/27 12:07:45;;;;;;;2.13;1.93;;;10.20;99.90;;;;;;5063025;28;20544;-81
2024/02/27 12:10:14;;;;;;;0.50;0.50;;;10.50;99.90;;;;;;5061651;28;20485;-82
2024/02/27 12:12:41;;;;;;;0.50;0.40;;;10.30;99.90;;;;;;5061205;28;20469;-81
2024/02/27 12:15:10;;;;;;;0.60;0.60;;;10.10;99.90;;;;;;5059116;28;20433;-82
2024/02/27 12:17:40;;;;;;;0.50;0.40;;;10.20;99.90;;;;;;5057423;28;20458;-82
2024/02/27 12:20:09;;;;;;;1.37;1.30;;;10.50;99.90;;;;;;5059401;28;20480;-80
2024/02/27 12:22:38;;;;;;;2.20;1.80;;;10.80;99.90;;;;;;5061984;28;20500;-83
2024/02/27 12:25:06;;;;;;;1.50;1.50;;;11.70;99.90;;;;;;5058188;28;20442;-83
2024/02/27 12:27:35;;;;;;;4.67;4.37;;;12.20;99.90;;;;;;5059761;28;20936;-78
2024/02/27 12:30:07;;;;;;;2.00;1.63;;;12.40;99.90;;;;;;5057944;28;20477;-80
2024/02/27 12:32:33;;;;;;;1.43;1.33;;;12.70;99.90;;;;;;5057899;28;20445;-78
2024/02/27 12:35:03;;;;;;;2.70;2.03;;;12.60;99.90;;;;;;5059121;28;20785;-80
2024/02/27 12:37:40;;;;;;;2.17;2.07;;;12.60;99.90;;;;;;5059609;28;20464;-81
2024/02/27 12:40:11;;;;;;;2.37;0.70;;;12.90;99.90;;;;;;5058699;28;20459;-79
2024/02/27 12:42:39;;;;;;;0.93;0.93;;;13.20;99.90;;;;;;5056692;28;20631;-79
2024/02/27 12:45:10;;;;;;;0.80;0.80;;;13.40;99.90;;;;;;5056440;28;20430;-81
2024/02/27 12:47:37;;;;;;;0.80;0.80;;;12.80;99.90;;;;;;5056150;28;20476;-82
2024/02/27 12:50:05;;;;;;;5.60;4.77;;;12.70;99.90;;;;;;5057637;28;20469;-83
2024/02/27 12:52:32;;;;;;;0.83;0.77;;;13.00;99.90;;;;;;5063149;28;20429;-84
2024/02/27 12:55:00;;;;;;;0.50;0.40;;;13.50;99.90;;;;;;5062243;28;20437;-81
2024/02/27 12:57:27;;;;;;;0.83;0.80;;;13.80;99.90;;;;;;5062784;28;20457;-81
2024/02/27 12:59:55;;;;;;;5.30;1.53;;;14.30;99.90;;;;;;5062514;28;20440;-83
2024/02/27 13:02:26;;;;;;;2.20;2.10;;;14.60;99.90;;;;;;5061686;28;20452;-83